ADDS METAR Data INFO
IDs: Format: Raw Decoded Include TAF

Data at: 0943 UTC 18 Jan 2018

METAR for:KCKB (Clarksburg/NC West V, WV, US)
Text:KCKB 180916Z AUTO 21009KT 9SM OVC014 M11/M14 A3034 RMK AO2 T11111144
Temperature:-11.1°C ( 12°F)
Dewpoint:-14.4°C ( 6°F) [RH = 77%]
Pressure (altimeter):30.34 inches Hg (1027.5 mb)
Winds:from the SSW (210 degrees) at 10 MPH (9 knots; 4.6 m/s)
Visibility: 9 sm ( 14 km)
Ceiling:1400 feet AGL
Clouds: overcast cloud deck at 1400 feet AGL
QC Flag:automated observation with no human augmentation
Text:KCKB 180853Z 22008KT 10SM OVC015 M11/M14 A3034 RMK AO2 SLP294 T11111144 56010
Temperature:-11.1°C ( 12°F)
Dewpoint:-14.4°C ( 6°F) [RH = 77%]
Pressure (altimeter):30.34 inches Hg (1027.5 mb) [Sea level pressure: 1029.4 mb]
Winds:from the SW (220 degrees) at 9 MPH (8 knots; 4.1 m/s)
Visibility:10 or more sm (16+ km)
Ceiling:1500 feet AGL
Clouds: overcast cloud deck at 1500 feet AGL
Text:KCKB 180753Z 20007KT 10SM OVC018 M12/M15 A3035 RMK AO2 SLP298 T11171150
Temperature:-11.7°C ( 11°F)
Dewpoint:-15.0°C ( 5°F) [RH = 76%]
Pressure (altimeter):30.35 inches Hg (1027.9 mb) [Sea level pressure: 1029.8 mb]
Winds:from the SSW (200 degrees) at 8 MPH (7 knots; 3.6 m/s)
Visibility:10 or more sm (16+ km)
Ceiling:1800 feet AGL
Clouds: overcast cloud deck at 1800 feet AGL
Text:KCKB 180653Z 21008KT 9SM OVC019 M12/M15 A3036 RMK AO2 SLP301 T11171150
Temperature:-11.7°C ( 11°F)
Dewpoint:-15.0°C ( 5°F) [RH = 76%]
Pressure (altimeter):30.36 inches Hg (1028.2 mb) [Sea level pressure: 1030.1 mb]
Winds:from the SSW (210 degrees) at 9 MPH (8 knots; 4.1 m/s)
Visibility: 9 sm ( 14 km)
Ceiling:1900 feet AGL
Clouds: overcast cloud deck at 1900 feet AGL
Text:KCKB 180553Z 21008KT 9SM OVC019 M12/M16 A3038 RMK AO2 SLP306 T11221156 11117 21144 58012
Temperature:-12.2°C ( 10°F)
Dewpoint:-15.6°C ( 4°F) [RH = 76%]
Pressure (altimeter):30.38 inches Hg (1028.9 mb) [Sea level pressure: 1030.6 mb]
Winds:from the SSW (210 degrees) at 9 MPH (8 knots; 4.1 m/s)
Visibility: 9 sm ( 14 km)
Ceiling:1900 feet AGL
Clouds: overcast cloud deck at 1900 feet AGL
Text:KCKB 180453Z 20007KT 9SM OVC018 M12/M16 A3039 RMK AO2 SLP311 T11221156 410941144
Temperature:-12.2°C ( 10°F)
Dewpoint:-15.6°C ( 4°F) [RH = 76%]
Pressure (altimeter):30.39 inches Hg (1029.2 mb) [Sea level pressure: 1031.1 mb]
Winds:from the SSW (200 degrees) at 8 MPH (7 knots; 3.6 m/s)
Visibility: 9 sm ( 14 km)
Ceiling:1800 feet AGL
Clouds: overcast cloud deck at 1800 feet AGL
Text:KCKB 180353Z 21005KT 10SM OVC023 M13/M16 A3041 RMK AO2 SLP317 T11281161
Temperature:-12.8°C ( 9°F)
Dewpoint:-16.1°C ( 3°F) [RH = 76%]
Pressure (altimeter):30.41 inches Hg (1029.9 mb) [Sea level pressure: 1031.7 mb]
Winds:from the SSW (210 degrees) at 6 MPH (5 knots; 2.6 m/s)
Visibility:10 or more sm (16+ km)
Ceiling:2300 feet AGL
Clouds: overcast cloud deck at 2300 feet AGL
Text:KCKB 180343Z 22006KT 10SM BKN023 M13/M16 A3041 RMK AO2 T11281161
Temperature:-12.8°C ( 9°F)
Dewpoint:-16.1°C ( 3°F) [RH = 76%]
Pressure (altimeter):30.41 inches Hg (1029.9 mb)
Winds:from the SW (220 degrees) at 7 MPH (6 knots; 3.1 m/s)
Visibility:10 or more sm (16+ km)
Ceiling:2300 feet AGL
Clouds: broken clouds at 2300 feet AGL
Text:KCKB 180253Z 21005KT 10SM CLR M14/M17 A3041 RMK AO2 SLP320 T11441172 56007
Temperature:-14.4°C ( 6°F)
Dewpoint:-17.2°C ( 1°F) [RH = 79%]
Pressure (altimeter):30.41 inches Hg (1029.9 mb) [Sea level pressure: 1032.0 mb]
Winds:from the SSW (210 degrees) at 6 MPH (5 knots; 2.6 m/s)
Visibility:10 or more sm (16+ km)
Ceiling:at least 12,000 feet AGL
Clouds:sky clear below 12,000 feet AGL
Text:KCKB 180204Z 21006KT 10SM FEW021 M13/M17 A3042 RMK AO2 T11331167
Temperature:-13.3°C ( 8°F)
Dewpoint:-16.7°C ( 2°F) [RH = 76%]
Pressure (altimeter):30.42 inches Hg (1030.2 mb)
Winds:from the SSW (210 degrees) at 7 MPH (6 knots; 3.1 m/s)
Visibility:10 or more sm (16+ km)
Ceiling:at least 12,000 feet AGL
Clouds: few clouds at 2100 feet AGL
Text:KCKB 180153Z 21006KT 10SM BKN020 M13/M17 A3041 RMK AO2 SLP321 T11331167
Temperature:-13.3°C ( 8°F)
Dewpoint:-16.7°C ( 2°F) [RH = 76%]
Pressure (altimeter):30.41 inches Hg (1029.9 mb) [Sea level pressure: 1032.1 mb]
Winds:from the SSW (210 degrees) at 7 MPH (6 knots; 3.1 m/s)
Visibility:10 or more sm (16+ km)
Ceiling:2000 feet AGL
Clouds: broken clouds at 2000 feet AGL
Text:KCKB 180053Z 23008KT 10SM OVC017 M12/M16 A3043 RMK AO2 SLP324 T11171161
Temperature:-11.7°C ( 11°F)
Dewpoint:-16.1°C ( 3°F) [RH = 70%]
Pressure (altimeter):30.43 inches Hg (1030.6 mb) [Sea level pressure: 1032.4 mb]
Winds:from the SW (230 degrees) at 9 MPH (8 knots; 4.1 m/s)
Visibility:10 or more sm (16+ km)
Ceiling:1700 feet AGL
Clouds: overcast cloud deck at 1700 feet AGL
Text:KCKB 172353Z 27008KT 10SM OVC020 M12/M17 A3043 RMK AO2 SLP326 60000 T11171167 11100 21117 53004
Temperature:-11.7°C ( 11°F)
Dewpoint:-16.7°C ( 2°F) [RH = 66%]
Pressure (altimeter):30.43 inches Hg (1030.6 mb) [Sea level pressure: 1032.6 mb]
Winds:from the W (270 degrees) at 9 MPH (8 knots; 4.1 m/s)
Visibility:10 or more sm (16+ km)
Ceiling:2000 feet AGL
Clouds: overcast cloud deck at 2000 feet AGL
Text:KCKB 172253Z 23007KT 10SM OVC020 M11/M16 A3041 RMK AO2 SLP320 T11111161
Temperature:-11.1°C ( 12°F)
Dewpoint:-16.1°C ( 3°F) [RH = 67%]
Pressure (altimeter):30.41 inches Hg (1029.9 mb) [Sea level pressure: 1032.0 mb]
Winds:from the SW (230 degrees) at 8 MPH (7 knots; 3.6 m/s)
Visibility:10 or more sm (16+ km)
Ceiling:2000 feet AGL
Clouds: overcast cloud deck at 2000 feet AGL
Text:KCKB 172153Z 28005KT 10SM OVC021 M11/M16 A3041 RMK AO2 SLP318 T11061161
Temperature:-10.6°C ( 13°F)
Dewpoint:-16.1°C ( 3°F) [RH = 64%]
Pressure (altimeter):30.41 inches Hg (1029.9 mb) [Sea level pressure: 1031.8 mb]
Winds:from the W (280 degrees) at 6 MPH (5 knots; 2.6 m/s)
Visibility:10 or more sm (16+ km)
Ceiling:2100 feet AGL
Clouds: overcast cloud deck at 2100 feet AGL
Text:KCKB 172053Z 28005KT 9SM OVC021 M11/M16 A3042 RMK AO2 SLP321 60000 T11061156 56007
Temperature:-10.6°C ( 13°F)
Dewpoint:-15.6°C ( 4°F) [RH = 67%]
Pressure (altimeter):30.42 inches Hg (1030.2 mb) [Sea level pressure: 1032.1 mb]
Winds:from the W (280 degrees) at 6 MPH (5 knots; 2.6 m/s)
Visibility: 9 sm ( 14 km)
Ceiling:2100 feet AGL
Clouds: overcast cloud deck at 2100 feet AGL
Text:KCKB 171953Z 26005KT 7SM OVC020 M11/M16 A3042 RMK AO2 SNE26 SLP321 P0000 T11061156
Temperature:-10.6°C ( 13°F)
Dewpoint:-15.6°C ( 4°F) [RH = 67%]
Pressure (altimeter):30.42 inches Hg (1030.2 mb) [Sea level pressure: 1032.1 mb]
Winds:from the W (260 degrees) at 6 MPH (5 knots; 2.6 m/s)
Visibility: 7 sm ( 11 km)
Ceiling:2000 feet AGL
Clouds: overcast cloud deck at 2000 feet AGL
Text:KCKB 171853Z VRB04KT 4SM -SN OVC019 M11/M16 A3042 RMK AO2 SLP321 P0000 T11111156
Temperature:-11.1°C ( 12°F)
Dewpoint:-15.6°C ( 4°F) [RH = 69%]
Pressure (altimeter):30.42 inches Hg (1030.2 mb) [Sea level pressure: 1032.1 mb]
Winds:variable direction winds at 5 MPH (4 knots; 2.1 m/s)
Visibility: 4 sm ( 6 km)
Ceiling:1900 feet AGL
Clouds: overcast cloud deck at 1900 feet AGL
Weather:-SN (light snow)
Text:KCKB 171831Z 00000KT 3SM -SN OVC018 M11/M16 A3043 RMK AO2 P0000 T11111156
Temperature:-11.1°C ( 12°F)
Dewpoint:-15.6°C ( 4°F) [RH = 69%]
Pressure (altimeter):30.43 inches Hg (1030.6 mb)
Winds:calm
Visibility: 3 sm ( 5 km)
Ceiling:1800 feet AGL
Clouds: overcast cloud deck at 1800 feet AGL
Weather:-SN (light snow)
Text:KCKB 171801Z 00000KT 2SM -SN OVC019 M11/M16 A3044 RMK AO2 P0000 T11111156
Temperature:-11.1°C ( 12°F)
Dewpoint:-15.6°C ( 4°F) [RH = 69%]
Pressure (altimeter):30.44 inches Hg (1030.9 mb)
Winds:calm
Visibility: 2.00 sm ( 3.22 km)
Ceiling:1900 feet AGL
Clouds: overcast cloud deck at 1900 feet AGL
Weather:-SN (light snow)
Text:KCKB 171753Z 00000KT 3SM -SN OVC019 M12/M16 A3044 RMK AO2 SNB27 SLP328 P0000 60000 T11171161 11117 21133 58012
Temperature:-11.7°C ( 11°F)
Dewpoint:-16.1°C ( 3°F) [RH = 70%]
Pressure (altimeter):30.44 inches Hg (1030.9 mb) [Sea level pressure: 1032.8 mb]
Winds:calm
Visibility: 3 sm ( 5 km)
Ceiling:1900 feet AGL
Clouds: overcast cloud deck at 1900 feet AGL
Weather:-SN (light snow)
Text:KCKB 171653Z 27004KT 5SM HZ OVC017 M12/M17 A3047 RMK AO2 SNB01E48 SLP336 P0000 T11221167
Temperature:-12.2°C ( 10°F)
Dewpoint:-16.7°C ( 2°F) [RH = 69%]
Pressure (altimeter):30.47 inches Hg (1031.9 mb) [Sea level pressure: 1033.6 mb]
Winds:from the W (270 degrees) at 5 MPH (4 knots; 2.1 m/s)
Visibility: 5 sm ( 8 km)
Ceiling:1700 feet AGL
Clouds: overcast cloud deck at 1700 feet AGL
Weather:HZ (haze)
Text:KCKB 171553Z 00000KT 3SM HZ OVC018 M12/M17 A3049 RMK AO2 SNE01 SLP343 P0000 T11221167
Temperature:-12.2°C ( 10°F)
Dewpoint:-16.7°C ( 2°F) [RH = 69%]
Pressure (altimeter):30.49 inches Hg (1032.6 mb) [Sea level pressure: 1034.3 mb]
Winds:calm
Visibility: 3 sm ( 5 km)
Ceiling:1800 feet AGL
Clouds: overcast cloud deck at 1800 feet AGL
Weather:HZ (haze)
Text:KCKB 171453Z 26003KT 1 3/4SM -SN OVC019 M13/M17 A3048 RMK AO2 SLP341 P0000 60000 T11281172 53001
Temperature:-12.8°C ( 9°F)
Dewpoint:-17.2°C ( 1°F) [RH = 70%]
Pressure (altimeter):30.48 inches Hg (1032.3 mb) [Sea level pressure: 1034.1 mb]
Winds:from the W (260 degrees) at 3 MPH (3 knots; 1.5 m/s)
Visibility: 1.75 sm ( 2.82 km)
Ceiling:1900 feet AGL
Clouds: overcast cloud deck at 1900 feet AGL
Weather:-SN (light snow)
Text:KCKB 171403Z 24003KT 1 3/4SM -SN OVC017 M13/M17 A3048 RMK AO2 P0000 T11331167
Temperature:-13.3°C ( 8°F)
Dewpoint:-16.7°C ( 2°F) [RH = 76%]
Pressure (altimeter):30.48 inches Hg (1032.3 mb)
Winds:from the WSW (240 degrees) at 3 MPH (3 knots; 1.5 m/s)
Visibility: 1.75 sm ( 2.82 km)
Ceiling:1700 feet AGL
Clouds: overcast cloud deck at 1700 feet AGL
Weather:-SN (light snow)
Text:KCKB 171353Z 22005KT 2SM -SN OVC017 M13/M17 A3048 RMK AO2 SNE25B45 SLP341 P0000 T11331167
Temperature:-13.3°C ( 8°F)
Dewpoint:-16.7°C ( 2°F) [RH = 76%]
Pressure (altimeter):30.48 inches Hg (1032.3 mb) [Sea level pressure: 1034.1 mb]
Winds:from the SW (220 degrees) at 6 MPH (5 knots; 2.6 m/s)
Visibility: 2.00 sm ( 3.22 km)
Ceiling:1700 feet AGL
Clouds: overcast cloud deck at 1700 feet AGL
Weather:-SN (light snow)
Text:KCKB 171346Z 21004KT 2SM -SN OVC015 M13/M17 A3048 RMK AO2 SNE25B45 P0000 T11331172
Temperature:-13.3°C ( 8°F)
Dewpoint:-17.2°C ( 1°F) [RH = 72%]
Pressure (altimeter):30.48 inches Hg (1032.3 mb)
Winds:from the SSW (210 degrees) at 5 MPH (4 knots; 2.1 m/s)
Visibility: 2.00 sm ( 3.22 km)
Ceiling:1500 feet AGL
Clouds: overcast cloud deck at 1500 feet AGL
Weather:-SN (light snow)
Text:KCKB 171253Z 21005KT 2SM -SN OVC014 M13/M17 A3047 RMK AO2 SNB09 SLP339 P0000 T11331167
Temperature:-13.3°C ( 8°F)
Dewpoint:-16.7°C ( 2°F) [RH = 76%]
Pressure (altimeter):30.47 inches Hg (1031.9 mb) [Sea level pressure: 1033.9 mb]
Winds:from the SSW (210 degrees) at 6 MPH (5 knots; 2.6 m/s)
Visibility: 2.00 sm ( 3.22 km)
Ceiling:1400 feet AGL
Clouds: overcast cloud deck at 1400 feet AGL
Weather:-SN (light snow)
Text:KCKB 171153Z AUTO 30006KT 8SM OVC013 M13/M17 A3048 RMK AO2 SNE42 SLP339 P0000 60000 T11331167 11100 21133 51009
Temperature:-13.3°C ( 8°F)
Dewpoint:-16.7°C ( 2°F) [RH = 76%]
Pressure (altimeter):30.48 inches Hg (1032.3 mb) [Sea level pressure: 1033.9 mb]
Winds:from the WNW (300 degrees) at 7 MPH (6 knots; 3.1 m/s)
Visibility: 8 sm ( 13 km)
Ceiling:1300 feet AGL
Clouds: overcast cloud deck at 1300 feet AGL
QC Flag:automated observation with no human augmentation
Text:KCKB 171053Z AUTO 28003KT 3SM -SN OVC013 M13/M17 A3047 RMK AO2 SNE02B21 SLP337 P0000 T11331167
Temperature:-13.3°C ( 8°F)
Dewpoint:-16.7°C ( 2°F) [RH = 76%]
Pressure (altimeter):30.47 inches Hg (1031.9 mb) [Sea level pressure: 1033.7 mb]
Winds:from the W (280 degrees) at 3 MPH (3 knots; 1.5 m/s)
Visibility: 3 sm ( 5 km)
Ceiling:1300 feet AGL
Clouds: overcast cloud deck at 1300 feet AGL
Weather:-SN (light snow)
QC Flag:automated observation with no human augmentation
Text:KCKB 170953Z AUTO 31005KT 6SM -SN OVC013 M13/M17 A3046 RMK AO2 SNE04B26 SLP332 P0000 T11331167
Temperature:-13.3°C ( 8°F)
Dewpoint:-16.7°C ( 2°F) [RH = 76%]
Pressure (altimeter):30.46 inches Hg (1031.6 mb) [Sea level pressure: 1033.2 mb]
Winds:from the NW (310 degrees) at 6 MPH (5 knots; 2.6 m/s)
Visibility: 6 sm ( 10 km)
Ceiling:1300 feet AGL
Clouds: overcast cloud deck at 1300 feet AGL
Weather:-SN (light snow)
QC Flag:automated observation with no human augmentation